Time;durP1;ratioP1;P1;durP2;ratioP2;P2;SDS_P1;SDS_P2;PMS_P1;PMS_P2;Temp;Humidity;BMP_temperature;BMP_pressure;BME280_temperature;BME280_humidity;BME280_pressure;Samples;Min_cycle;Max_cycle;Signal;HPM_P1;HPM_P2
2022/05/03 00:01:04;;;;;;;0.10;0.10;;;13.20;99.90;;;13.30;100.00;99886.69;5002839;28;20294;-75
2022/05/03 00:04:06;;;;;;;0.10;0.10;;;13.20;99.90;;;13.25;100.00;99876.13;5000966;28;20215;-76
2022/05/03 00:07:08;;;;;;;0.10;0.10;;;13.20;99.90;;;13.26;100.00;99880.53;4982339;28;20262;-75
2022/05/03 00:10:15;;;;;;;0.20;0.20;;;13.20;99.90;;;13.28;100.00;99883.16;4982019;28;20212;-75
2022/05/03 00:13:06;;;;;;;0.10;0.10;;;13.20;99.90;;;13.17;100.00;99877.97;4981481;28;20211;-75
2022/05/03 00:15:39;;;;;;;0.10;0.10;;;13.20;99.90;;;13.09;100.00;99878.03;5003179;28;20231;-75
2022/05/03 00:18:08;;;;;;;0.20;0.20;;;13.20;99.90;;;13.09;100.00;99896.59;4983066;28;20216;-75
2022/05/03 00:20:37;;;;;;;0.10;0.10;;;13.10;99.90;;;13.02;100.00;99902.88;5003759;28;20222;-76
2022/05/03 00:23:05;;;;;;;0.10;0.10;;;13.10;99.90;;;12.86;100.00;99905.63;5004486;28;20590;-75
2022/05/03 00:25:34;;;;;;;0.10;0.10;;;13.10;99.90;;;12.43;100.00;99900.66;4988961;28;20226;-75
2022/05/03 00:28:04;;;;;;;0.10;0.10;;;12.90;99.90;;;12.37;100.00;99925.47;5004205;28;20216;-75
2022/05/03 00:30:35;;;;;;;0.30;0.30;;;12.80;99.90;;;12.49;100.00;99943.06;4998719;28;20228;-75
2022/05/03 00:33:08;;;;;;;0.30;0.30;;;12.70;99.90;;;12.41;100.00;99952.84;4999446;28;20214;-75
2022/05/03 00:35:38;;;;;;;0.10;0.10;;;12.70;99.90;;;12.40;100.00;99957.25;4983163;28;20258;-75
2022/05/03 00:38:06;;;;;;;0.10;0.10;;;12.70;99.90;;;12.12;100.00;99955.66;4982392;28;20213;-75
2022/05/03 00:40:36;;;;;;;0.10;0.10;;;12.60;99.90;;;12.24;100.00;99971.50;4966309;28;20204;-74
2022/05/03 00:43:10;;;;;;;0.10;0.10;;;12.60;99.90;;;12.37;100.00;99990.88;4998920;28;20220;-76
2022/05/03 00:45:55;;;;;;;0.10;0.10;;;12.60;99.90;;;12.44;100.00;99984.63;5000444;28;20642;-75
2022/05/03 00:49:09;;;;;;;0.20;0.20;;;12.60;99.90;;;12.43;100.00;99991.72;4984450;28;20211;-75
2022/05/03 00:52:12;;;;;;;0.10;0.10;;;12.60;99.90;;;12.50;100.00;99990.78;5001689;28;20243;-75
2022/05/03 00:55:09;;;;;;;0.10;0.10;;;12.60;99.90;;;12.59;100.00;99988.97;4985848;28;20215;-76
2022/05/03 00:58:18;;;;;;;0.10;0.10;;;12.60;99.90;;;12.52;100.00;99988.13;5001626;28;20589;-75
2022/05/03 01:01:21;;;;;;;0.10;0.10;;;12.60;99.90;;;12.43;100.00;99982.88;4981196;28;20214;-75
2022/05/03 01:04:18;;;;;;;0.10;0.10;;;13.60;99.90;;;12.44;100.00;99995.25;5001027;28;20219;-75
2022/05/03 01:07:29;;;;;;;0.10;0.10;;;12.60;99.90;;;12.53;100.00;100008.47;5001780;28;20223;-76
2022/05/03 01:10:29;;;;;;;0.30;0.30;;;12.60;99.90;;;12.59;100.00;100000.47;4996685;28;20208;-76
2022/05/03 01:13:22;;;;;;;0.10;0.10;;;12.60;99.90;;;12.69;100.00;99994.19;4984420;28;20250;-75
2022/05/03 01:16:03;;;;;;;0.10;0.10;;;12.60;99.90;;;12.78;100.00;99996.78;5001105;28;20262;-75
2022/05/03 01:18:42;;;;;;;0.10;0.10;;;12.60;99.90;;;12.79;100.00;99984.41;5001805;28;20578;-74
2022/05/03 01:21:45;;;;;;;0.20;0.20;;;12.60;99.90;;;12.74;100.00;99967.63;4996144;28;20215;-76
2022/05/03 01:25:07;;;;;;;0.10;0.10;;;12.00;99.90;;;12.76;100.00;99974.69;4982651;28;20218;-75
2022/05/03 01:27:59;;;;;;;0.52;0.52;;;12.70;99.90;;;12.73;100.00;99966.75;4998968;28;20228;-75
2022/05/03 01:30:30;;;;;;;0.10;0.10;;;12.60;99.90;;;12.71;100.00;99963.25;4998905;28;20630;-76
2022/05/03 01:33:08;;;;;;;0.10;0.10;;;12.60;99.90;;;12.73;100.00;99960.56;4998112;28;20293;-75
2022/05/03 01:35:39;;;;;;;0.10;0.10;;;12.60;99.90;;;12.67;100.00;99968.56;4996901;28;20232;-75
2022/05/03 01:38:36;;;;;;;0.10;0.10;;;12.60;99.90;;;12.83;100.00;99987.03;5000223;28;20204;-75
2022/05/03 01:41:46;;;;;;;0.10;0.10;;;12.50;99.90;;;12.79;100.00;99979.09;5002157;28;20212;-75
2022/05/03 01:44:40;;;;;;;0.10;0.10;;;12.50;99.90;;;12.77;100.00;99980.88;4978813;28;20683;-75
2022/05/03 01:47:14;;;;;;;0.20;0.20;;;12.50;99.90;;;12.75;100.00;99982.66;4996240;28;20232;-75
2022/05/03 01:53:19;;;;;;;0.10;0.10;;;12.50;99.90;;;12.68;100.00;99971.22;4999406;28;20231;-77
2022/05/03 01:55:56;;;;;;;0.10;0.10;;;12.50;99.90;;;12.76;100.00;99985.31;4995266;28;20223;-75
2022/05/03 01:59:13;;;;;;;0.10;0.10;;;12.50;99.90;;;12.81;100.00;99995.91;5000443;28;20226;-75
2022/05/03 02:02:00;;;;;;;0.10;0.10;;;12.50;99.90;;;12.81;100.00;99987.94;4979200;28;20214;-75
2022/05/03 02:04:47;;;;;;;0.15;0.15;;;12.60;99.90;;;12.86;100.00;99999.41;4980343;28;20696;-74
2022/05/03 02:07:25;;;;;;;0.20;0.20;;;12.50;99.90;;;12.88;100.00;99996.72;4998324;28;20224;-75
2022/05/03 02:10:03;;;;;;;0.10;0.10;;;12.60;99.90;;;12.87;100.00;99992.31;5001518;28;20219;-74
2022/05/03 02:12:33;;;;;;;0.10;0.10;;;12.60;99.90;;;12.83;100.00;99994.09;4998477;28;20235;-75
2022/05/03 02:15:07;;;;;;;0.20;0.20;;;12.70;99.90;;;12.78;100.00;99983.53;4997086;28;20211;-74
2022/05/03 02:17:55;;;;;;;0.17;0.17;;;12.60;99.90;;;12.69;100.00;99983.59;4996910;28;20235;-74
2022/05/03 02:20:54;;;;;;;0.10;0.10;;;12.50;99.90;;;12.65;100.00;99980.97;4982369;28;20204;-76
2022/05/03 02:23:57;;;;;;;0.10;0.10;;;12.50;99.90;;;12.71;100.00;99979.16;4996532;28;20234;-75
2022/05/03 02:27:03;;;;;;;0.20;0.20;;;12.50;99.90;;;12.62;100.00;99983.66;4983802;28;20228;-74
2022/05/03 02:29:49;;;;;;;0.20;0.20;;;12.50;99.90;;;12.53;100.00;99987.22;4976962;28;20215;-74
2022/05/03 02:32:36;;;;;;;0.20;0.20;;;12.40;99.90;;;12.54;100.00;99991.66;4998427;28;20239;-75
2022/05/03 02:35:06;;;;;;;0.20;0.20;;;12.40;99.90;;;12.58;100.00;99996.03;4981559;28;20308;-74
2022/05/03 02:37:48;;;;;;;0.10;0.10;;;12.40;99.90;;;12.49;100.00;99991.69;4996888;28;20239;-75
2022/05/03 02:40:20;;;;;;;0.10;0.10;;;12.30;99.90;;;12.54;100.00;99996.06;5002555;28;20219;-74
2022/05/03 02:42:51;;;;;;;0.10;0.10;;;12.30;99.90;;;12.56;100.00;100010.22;4978925;28;20220;-75
2022/05/03 02:45:19;;;;;;;0.10;0.10;;;12.30;99.90;;;12.56;100.00;100016.41;4999868;28;20220;-75
2022/05/03 02:48:14;;;;;;;0.10;0.10;;;12.30;99.90;;;12.59;100.00;100029.63;5001138;28;20208;-74
2022/05/03 02:51:04;;;;;;;0.20;0.20;;;12.30;99.90;;;12.46;100.00;100019.97;5003779;28;20291;-77
2022/05/03 02:53:51;;;;;;;0.10;0.10;;;12.30;99.90;;;12.44;100.00;100027.06;5002963;28;20231;-77
2022/05/03 02:56:57;;;;;;;0.20;0.20;;;12.30;99.90;;;12.34;100.00;100015.63;4988404;28;20230;-78
2022/05/03 03:02:43;;;;;;;0.20;0.20;;;12.30;99.90;;;12.39;100.00;100034.16;4999274;28;20208;-77
2022/05/03 03:05:17;;;;;;;0.10;0.10;;;12.30;99.90;;;12.36;100.00;100032.41;4999863;28;20203;-77
2022/05/03 03:08:05;;;;;;;0.10;0.10;;;12.20;99.90;;;12.34;100.00;100034.19;4986484;28;20590;-75
2022/05/03 03:11:05;;;;;;;0.10;0.10;;;12.20;99.90;;;12.32;100.00;100038.63;4979953;28;20208;-74
2022/05/03 03:14:04;;;;;;;0.10;0.10;;;12.20;99.90;;;12.32;100.00;100038.63;5000223;28;20243;-74
2022/05/03 03:16:38;;;;;;;0.17;0.17;;;12.20;99.90;;;12.35;100.00;100049.22;4977730;28;20238;-75
2022/05/03 03:19:40;;;;;;;0.10;0.10;;;12.10;99.90;;;12.29;100.00;100054.53;4984278;28;20204;-74
2022/05/03 03:22:13;;;;;;;0.20;0.20;;;12.10;99.90;;;12.26;100.00;100049.25;5005759;28;20203;-74
2022/05/03 03:24:42;;;;;;;0.10;0.10;;;12.10;99.90;;;12.30;100.00;100055.41;5002232;28;20212;-75
2022/05/03 03:27:11;;;;;;;0.20;0.20;;;12.10;99.90;;;12.32;100.00;100059.81;4999874;28;20228;-75
2022/05/03 03:29:41;;;;;;;0.10;0.10;;;12.10;99.90;;;12.38;100.00;100072.19;5004701;28;20219;-75
2022/05/03 03:32:10;;;;;;;0.30;0.30;;;12.10;99.90;;;12.37;100.00;100071.28;4999995;28;20699;-74
2022/05/03 03:34:42;;;;;;;0.20;0.20;;;12.10;99.90;;;12.40;100.00;100084.53;5006229;28;20203;-75
2022/05/03 03:37:14;;;;;;;0.20;0.20;;;12.10;99.90;;;12.42;100.00;100077.47;5006650;28;20231;-75
2022/05/03 03:39:42;;;;;;;0.30;0.30;;;12.20;99.90;;;12.44;100.00;100082.75;4988948;28;20215;-75
2022/05/03 03:42:10;;;;;;;0.20;0.20;;;12.20;99.90;;;12.47;100.00;100086.28;5007668;28;20212;-73
2022/05/03 03:44:38;;;;;;;0.10;0.10;;;12.20;99.90;;;12.45;100.00;100088.06;5004245;28;20216;-74
2022/05/03 03:47:07;;;;;;;0.10;0.10;;;12.20;99.90;;;12.42;100.00;100090.72;4988801;28;20244;-74
2022/05/03 03:49:39;;;;;;;0.10;0.10;;;12.20;99.90;;;12.41;100.00;100090.72;4986517;28;20195;-74
2022/05/03 03:52:09;;;;;;;0.10;0.10;;;12.20;99.90;;;12.38;100.00;100094.28;4989350;28;20231;-75
2022/05/03 03:54:40;;;;;;;0.10;0.10;;;12.20;99.90;;;12.38;100.00;100096.03;5005724;28;20223;-75
2022/05/03 03:57:08;;;;;;;0.10;0.10;;;12.20;99.90;;;12.35;100.00;100099.59;5010703;28;20239;-74
2022/05/03 03:59:37;;;;;;;0.13;0.13;;;12.20;99.90;;;12.32;100.00;100114.63;5001758;28;20215;-75
2022/05/03 04:02:06;;;;;;;0.20;0.20;;;12.20;99.90;;;12.31;100.00;100118.16;5001862;28;20216;-74
2022/05/03 04:04:37;;;;;;;0.10;0.10;;;12.20;99.90;;;12.27;100.00;100117.28;5002959;28;20216;-75
2022/05/03 04:07:05;;;;;;;0.10;0.10;;;12.10;99.90;;;12.25;100.00;100127.03;4997080;28;20232;-75
2022/05/03 04:09:34;;;;;;;0.10;0.10;;;12.10;99.90;;;12.26;100.00;100133.19;5004329;28;20207;-74
2022/05/03 04:12:04;;;;;;;0.20;0.20;;;12.10;99.90;;;12.28;100.00;100134.97;5004724;28;20220;-74
2022/05/03 04:14:32;;;;;;;0.73;0.73;;;12.10;99.90;;;12.23;100.00;100138.50;5004152;28;20208;-74
2022/05/03 04:17:00;;;;;;;0.20;0.20;;;12.10;99.90;;;12.16;100.00;100141.19;5007089;28;20231;-74
2022/05/03 04:19:29;;;;;;;0.40;0.40;;;12.10;99.90;;;12.16;100.00;100145.59;5007901;28;20223;-74
2022/05/03 04:22:12;;;;;;;0.20;0.20;;;12.10;99.90;;;12.09;100.00;100152.69;5006196;28;20214;-74
2022/05/03 04:24:40;;;;;;;0.10;0.10;;;12.10;99.90;;;12.05;100.00;100156.22;4993654;28;20315;-75
2022/05/03 04:27:08;;;;;;;0.10;0.10;;;12.00;99.90;;;12.12;100.00;100165.03;4999360;28;20236;-75
2022/05/03 04:29:36;;;;;;;0.20;0.20;;;12.00;99.90;;;12.15;100.00;100173.00;4992149;28;20212;-74
2022/05/03 04:32:05;;;;;;;0.10;0.10;;;12.00;99.90;;;12.12;100.00;100180.94;4992652;28;20215;-77
2022/05/03 04:34:33;;;;;;;0.10;0.10;;;12.10;99.90;;;12.15;100.00;100179.19;5002070;28;20212;-77
2022/05/03 04:37:01;;;;;;;0.20;0.20;;;12.10;99.90;;;12.20;100.00;100173.00;5005259;28;20719;-74
2022/05/03 04:39:29;;;;;;;0.17;0.17;;;12.10;99.90;;;12.26;100.00;100178.28;5007678;28;20275;-75
2022/05/03 04:41:57;;;;;;;0.10;0.10;;;12.10;99.90;;;12.25;100.00;100180.03;5001271;28;20207;-73
2022/05/03 04:44:25;;;;;;;0.20;0.20;;;12.10;99.90;;;12.32;100.00;100188.88;4990298;28;20215;-75
2022/05/03 04:46:53;;;;;;;0.90;0.90;;;12.10;99.90;;;12.33;100.00;100191.53;5005280;28;20232;-76
2022/05/03 04:49:21;;;;;;;0.20;0.20;;;12.20;99.90;;;12.34;100.00;100189.75;5007634;28;20212;-76
2022/05/03 04:51:49;;;;;;;0.20;0.20;;;12.20;99.90;;;12.37;100.00;100190.63;5009915;28;20219;-75
2022/05/03 04:54:17;;;;;;;0.10;0.10;;;12.20;99.90;;;12.39;100.00;100198.56;5008127;28;20298;-77
2022/05/03 04:56:54;;;;;;;0.20;0.20;;;12.20;99.90;;;12.37;100.00;100197.69;5007028;28;20246;-74
2022/05/03 04:59:22;;;;;;;0.10;0.10;;;12.30;99.90;;;12.38;100.00;100194.16;5001440;28;20203;-74
2022/05/03 05:01:50;;;;;;;0.10;0.10;;;12.30;99.90;;;12.39;100.00;100195.94;5004617;28;20227;-74
2022/05/03 05:04:18;;;;;;;0.10;0.10;;;12.30;99.90;;;12.39;100.00;100207.41;5005041;28;20204;-75
2022/05/03 05:06:46;;;;;;;0.10;0.10;;;12.30;99.90;;;12.43;100.00;100210.94;5003305;28;20609;-77
2022/05/03 05:09:20;;;;;;;0.10;0.10;;;12.30;99.90;;;12.41;100.00;100208.28;5002605;28;20561;-75
2022/05/03 05:11:50;;;;;;;0.10;0.10;;;12.30;99.90;;;12.42;100.00;100215.38;4997511;28;20224;-77
2022/05/03 05:14:20;;;;;;;0.17;0.17;;;12.30;99.90;;;12.45;100.00;100219.78;5004937;28;20238;-73
2022/05/03 05:16:49;;;;;;;0.10;0.10;;;12.30;99.90;;;12.49;100.00;100221.53;5003830;28;20230;-74
2022/05/03 05:19:18;;;;;;;0.10;0.10;;;12.30;99.90;;;12.49;100.00;100227.72;4990367;28;20216;-76
2022/05/03 05:21:46;;;;;;;0.20;0.20;;;12.30;99.90;;;12.54;100.00;100232.13;5006456;28;20215;-74
2022/05/03 05:24:14;;;;;;;0.10;0.10;;;12.40;99.90;;;12.57;100.00;100229.47;5005610;28;20687;-76
2022/05/03 05:26:42;;;;;;;0.20;0.20;;;12.40;99.90;;;12.63;100.00;100245.38;5006929;28;20238;-75
2022/05/03 05:29:10;;;;;;;0.10;0.10;;;12.40;99.90;;;12.65;100.00;100243.59;5006626;28;20215;-74
2022/05/03 05:31:38;;;;;;;0.20;0.20;;;12.50;99.90;;;12.70;100.00;100248.00;5002334;28;20211;-79
2022/05/03 05:34:06;;;;;;;0.30;0.30;;;12.50;99.90;;;12.74;100.00;100252.44;5002806;28;20243;-79
2022/05/03 05:36:34;;;;;;;0.10;0.10;;;12.50;99.90;;;12.83;100.00;100259.47;5000810;28;20587;-74
2022/05/03 05:39:02;;;;;;;0.10;0.10;;;12.60;99.90;;;12.92;100.00;100259.44;5005018;28;20204;-75
2022/05/03 05:41:30;;;;;;;0.10;0.10;;;12.70;99.90;;;12.98;100.00;100263.84;5006612;28;20560;-75
2022/05/03 05:43:58;;;;;;;0.10;0.10;;;12.80;99.90;;;13.09;100.00;100280.66;4999174;28;20221;-75
2022/05/03 05:46:26;;;;;;;0.10;0.10;;;12.80;99.90;;;13.16;100.00;100284.16;4994733;28;20227;-75
2022/05/03 05:48:54;;;;;;;0.10;0.10;;;12.90;99.90;;;13.22;100.00;100273.56;5002460;28;20675;-74
2022/05/03 05:51:22;;;;;;;0.45;0.45;;;12.90;99.90;;;13.30;100.00;100283.25;5008778;28;20208;-74
2022/05/03 05:53:50;;;;;;;0.20;0.20;;;13.10;99.90;;;13.39;100.00;100282.34;5007154;28;20243;-75
2022/05/03 05:56:18;;;;;;;0.30;0.30;;;13.10;99.90;;;13.47;100.00;100271.66;5004552;28;20243;-74
2022/05/03 05:58:47;;;;;;;0.10;0.10;;;13.20;99.90;;;13.55;100.00;100265.41;4984225;28;20204;-75
2022/05/03 06:01:15;;;;;;;0.10;0.10;;;13.20;99.90;;;13.62;100.00;100271.59;4979539;28;20665;-76
2022/05/03 06:03:43;;;;;;;0.10;0.10;;;13.30;99.90;;;13.73;100.00;100267.09;5006381;28;20216;-74
2022/05/03 06:06:12;;;;;;;0.10;0.10;;;13.40;99.90;;;13.83;100.00;100263.47;5006794;28;20238;-74
2022/05/03 06:08:40;;;;;;;0.10;0.10;;;13.50;99.90;;;13.90;100.00;100262.53;5007910;28;20215;-75
2022/05/03 06:11:08;;;;;;;0.10;0.10;;;13.60;99.90;;;14.14;100.00;100282.72;4986470;28;20203;-75
2022/05/03 06:13:36;;;;;;;0.10;0.10;;;13.70;99.90;;;14.22;100.00;100261.41;5001329;28;20231;-75
2022/05/03 06:16:11;;;;;;;0.10;0.10;;;13.90;99.90;;;14.38;100.00;100253.28;4977635;28;20603;-75
2022/05/03 06:18:40;;;;;;;0.10;0.10;;;14.00;99.90;;;14.43;100.00;100223.13;4971279;28;20212;-76
2022/05/03 06:21:08;;;;;;;0.10;0.10;;;14.10;99.90;;;14.38;99.53;100199.19;5007095;28;20208;-74
2022/05/03 06:23:37;;;;;;;0.32;0.32;;;14.20;99.90;;;14.43;97.69;100172.59;5008128;28;20215;-74
2022/05/03 06:26:06;;;;;;;0.10;0.10;;;14.20;99.90;;;14.60;97.28;100178.59;4990603;28;20243;-76
2022/05/03 06:28:45;;;;;;;0.10;0.10;;;14.30;99.90;;;14.64;96.33;100157.25;5006056;28;20195;-76
2022/05/03 06:31:13;;;;;;;0.10;0.10;;;14.50;99.90;;;14.65;97.28;100174.09;5007188;28;20216;-75
2022/05/03 06:33:41;;;;;;;0.10;0.10;;;14.50;99.90;;;14.62;96.78;100160.84;4983067;28;20258;-77
2022/05/03 06:36:15;;;;;;;0.10;0.10;;;14.40;99.90;;;14.80;97.20;100175.69;5005240;28;20224;-77
2022/05/03 06:38:44;;;;;;;0.10;0.10;;;14.50;99.90;;;14.61;96.33;100146.66;4990448;28;20211;-75
2022/05/03 06:41:12;;;;;;;0.22;0.22;;;14.50;99.90;;;14.72;96.77;100163.38;5006016;28;20207;-75
2022/05/03 06:43:40;;;;;;;0.10;0.10;;;14.50;99.90;;;14.77;96.55;100160.66;5010943;28;20219;-74
2022/05/03 06:46:10;;;;;;;0.10;0.10;;;14.70;99.90;;;14.87;96.72;100167.63;5001829;28;20228;-76
2022/05/03 06:48:38;;;;;;;1.30;1.30;;;14.70;99.90;;;14.69;96.29;100142.09;5010394;28;20212;-74
2022/05/03 06:51:06;;;;;;;0.10;0.10;;;14.60;99.90;;;14.82;96.49;100153.50;4990429;28;20212;-74
2022/05/03 06:53:34;;;;;;;0.03;0.03;;;14.60;99.90;;;14.97;96.32;100166.59;5004410;28;20212;-75
2022/05/03 06:56:03;;;;;;;0.10;0.10;;;14.70;99.90;;;14.94;95.92;100147.13;4987076;28;20328;-75
2022/05/03 06:58:31;;;;;;;0.10;0.10;;;14.80;99.90;;;15.21;97.25;100183.16;5001873;28;20211;-74
2022/05/03 07:01:13;;;;;;;0.10;0.10;;;14.90;99.90;;;15.18;96.52;100178.75;5000805;28;20212;-76
2022/05/03 07:03:42;;;;;;;0.10;0.10;;;15.00;99.90;;;15.40;96.56;100189.97;5004935;28;20204;-76
2022/05/03 07:06:11;;;;;;;0.10;0.10;;;15.10;99.90;;;15.23;96.46;100163.56;5004069;28;20238;-77
2022/05/03 07:08:40;;;;;;;0.10;0.10;;;15.20;99.90;;;15.48;95.82;100180.09;5001776;28;20208;-74
2022/05/03 07:11:08;;;;;;;0.10;0.10;;;15.30;99.90;;;15.42;96.69;100174.84;5002371;28;20212;-75
2022/05/03 07:13:36;;;;;;;0.10;0.10;;;15.30;99.90;;;15.50;97.72;100194.25;4991100;28;20227;-74
2022/05/03 07:16:05;;;;;;;0.00;0.00;;;15.40;99.90;;;15.35;95.65;100152.75;5003415;28;20241;-75
2022/05/03 07:24:07;;;;;;;0.10;0.10;;;15.40;99.90;;;16.00;95.30;100180.19;4990666;28;20212;-75
2022/05/03 07:26:37;;;;;;;0.20;0.20;;;15.70;99.90;;;16.46;92.25;100165.13;5007996;28;20228;-75
2022/05/03 07:29:07;;;;;;;0.10;0.10;;;;;;;16.37;91.89;100135.94;5007144;28;20204;-76
2022/05/03 07:31:41;;;;;;;0.20;0.20;;;16.10;99.90;;;16.15;91.88;100112.34;5006088;28;20208;-74
2022/05/03 07:34:09;;;;;;;0.10;0.10;;;16.20;99.90;;;16.02;91.00;100093.94;4991018;28;20234;-76
2022/05/03 07:36:37;;;;;;;0.10;0.10;;;16.10;99.90;;;16.28;90.98;100121.88;5004149;28;20703;-75
2022/05/03 07:39:05;;;;;;;0.10;0.10;;;16.10;99.90;;;16.12;91.16;100092.84;4971353;28;20216;-78
2022/05/03 07:41:33;;;;;;;0.00;0.00;;;16.20;99.90;;;16.35;90.49;100116.41;5004994;28;20217;-77
2022/05/03 07:44:01;;;;;;;0.10;0.10;;;16.20;99.90;;;16.59;89.18;100121.28;4999880;28;20217;-77
2022/05/03 07:46:29;;;;;;;0.20;0.20;;;16.30;99.90;;;16.90;88.48;100119.78;5002420;28;20224;-75
2022/05/03 07:49:00;;;;;;;0.10;0.10;;;16.50;99.90;;;16.77;86.62;100062.16;5006038;28;20203;-75
2022/05/03 07:51:28;;;;;;;0.10;0.10;;;16.70;99.90;;;16.83;87.69;100067.38;4987830;28;20200;-75
2022/05/03 07:53:57;;;;;;;0.10;0.10;;;16.70;99.90;;;17.18;87.58;100082.63;4994150;28;20642;-74
2022/05/03 07:56:25;;;;;;;0.10;0.10;;;16.90;99.90;;;16.54;87.20;100021.72;4985589;28;20232;-74
2022/05/03 07:58:53;;;;;;;0.10;0.10;;;16.80;99.90;;;16.85;88.52;100062.88;4999125;28;20215;-75
2022/05/03 08:01:22;;;;;;;0.40;0.40;;;16.80;99.90;;;17.08;89.03;100082.88;4994205;28;20208;-75
2022/05/03 08:03:50;;;;;;;0.10;0.10;;;17.00;99.90;;;17.06;88.77;100080.25;5003050;28;20204;-75
2022/05/03 08:06:19;;;;;;;0.10;0.10;;;17.10;99.90;;;16.98;89.64;100084.00;4996679;28;20232;-76
2022/05/03 08:08:47;;;;;;;0.10;0.10;;;17.10;99.90;;;17.06;90.59;100098.94;4990028;28;20211;-75
2022/05/03 08:11:16;;;;;;;0.10;0.10;;;17.10;99.90;;;17.24;90.54;100113.66;5000497;28;20243;-75
2022/05/03 08:13:45;;;;;;;0.10;0.10;;;17.10;99.90;;;17.24;87.76;100066.44;5002992;28;20213;-75
2022/05/03 08:16:21;;;;;;;0.10;0.10;;;17.20;99.90;;;17.36;86.40;100057.25;5001252;28;20231;-76
2022/05/03 08:18:49;;;;;;;0.08;0.08;;;17.30;99.90;;;17.31;86.23;100037.78;4981656;28;20599;-73
2022/05/03 08:21:18;;;;;;;0.10;0.10;;;17.30;99.90;;;17.53;86.21;100054.16;5004077;28;20214;-76
2022/05/03 08:23:46;;;;;;;0.10;0.10;;;17.40;99.90;;;17.53;85.59;100039.00;5003820;28;20266;-74
2022/05/03 08:26:15;;;;;;;0.10;0.10;;;17.50;99.90;;;18.02;87.09;100090.34;5000464;28;20236;-74
2022/05/03 08:28:48;;;;;;;0.08;0.08;;;17.70;99.90;;;17.90;86.24;100063.00;5003654;28;20215;-73
2022/05/03 08:31:16;;;;;;;0.00;0.00;;;17.80;99.90;;;18.08;85.49;100069.66;4999431;28;20207;-74
2022/05/03 08:33:44;;;;;;;0.03;0.03;;;17.90;99.90;;;18.03;85.21;100041.28;5002278;28;20212;-73
2022/05/03 08:36:12;;;;;;;0.10;0.10;;;17.90;99.90;;;18.19;83.06;100027.41;4970320;28;20228;-73
2022/05/03 08:44:14;;;;;;;0.00;0.00;;;18.30;99.90;;;18.75;83.97;100043.66;4988148;28;20204;-73
2022/05/03 08:46:42;;;;;;;0.10;0.10;;;18.50;99.90;;;18.69;83.05;100016.19;5001733;28;20254;-73
2022/05/03 08:49:13;;;;;;;0.10;0.10;;;18.60;99.90;;;18.66;82.63;100009.13;5005117;28;20215;-74
2022/05/03 08:51:44;;;;;;;0.10;0.10;;;18.80;99.90;;;18.80;81.96;100006.03;5006576;28;20227;-74
2022/05/03 08:54:12;;;;;;;0.00;0.00;;;18.80;99.90;;;18.80;81.27;99974.75;5003966;28;20308;-74
2022/05/03 08:56:40;;;;;;;0.00;0.00;;;19.00;99.90;;;19.09;80.60;99989.00;5011408;28;20612;-74
2022/05/03 08:59:09;;;;;;;0.22;0.22;;;19.00;99.90;;;18.74;80.52;99942.81;5008235;28;20574;-73
2022/05/03 09:01:37;;;;;;;0.10;0.10;;;19.10;99.90;;;18.85;80.31;99940.66;4986284;28;20212;-75
2022/05/03 09:04:06;;;;;;;0.10;0.10;;;19.10;99.90;;;19.42;82.47;100016.50;5006381;28;20207;-73
2022/05/03 09:06:48;;;;;;;0.10;0.10;;;19.20;99.90;;;19.77;78.69;99977.78;5004200;28;20234;-73
2022/05/03 09:09:20;;;;;;;0.10;0.10;;;19.50;99.90;;;19.27;78.83;99912.44;5009582;28;20215;-73
2022/05/03 09:11:57;;;;;;;0.00;0.00;;;19.40;99.90;;;18.95;79.83;99884.97;5007384;28;20211;-74
2022/05/03 09:14:39;;;;;;;0.10;0.10;;;19.40;99.90;;;19.35;77.52;99889.81;5000941;28;20208;-76
2022/05/03 09:17:07;;;;;;;0.10;0.10;;;19.70;99.90;;;19.37;78.54;99904.03;4998245;28;20219;-75
2022/05/03 09:19:36;;;;;;;0.10;0.10;;;19.70;99.90;;;19.59;77.49;99911.38;4996938;28;20222;-77
2022/05/03 09:25:06;;;;;;;0.17;0.17;;;19.90;99.90;;;19.96;79.30;99951.16;5002296;28;20215;-78
2022/05/03 09:27:34;;;;;;;0.10;0.10;;;19.80;99.90;;;19.57;76.89;99864.97;4999873;28;20223;-74
2022/05/03 09:30:02;;;;;;;0.10;0.10;;;19.80;99.90;;;19.77;78.09;99892.81;5000632;28;20215;-75
2022/05/03 09:32:41;;;;;;;0.17;0.17;;;20.10;99.90;;;19.79;77.61;99890.94;4982189;28;20204;-75
2022/05/03 09:35:33;;;;;;;0.00;0.00;;;19.90;99.90;;;19.82;74.43;99828.22;4998727;28;20231;-74
2022/05/03 09:38:04;;;;;;;0.03;0.03;;;20.50;99.90;;;20.41;72.63;99844.69;5002312;28;20207;-76
2022/05/03 09:40:40;;;;;;;0.10;0.10;;;20.70;99.90;;;20.42;73.03;99830.31;4985097;28;20239;-74
2022/05/03 09:43:09;;;;;;;0.00;0.00;;;21.20;99.90;;;21.03;75.04;99877.97;4981320;28;20852;-74
2022/05/03 09:45:37;;;;;;;0.10;0.10;;;21.40;99.90;;;21.08;73.48;99859.84;4980297;28;20238;-74
2022/05/03 09:48:06;;;;;;;0.10;0.10;;;;;;;20.84;75.39;99836.69;4995410;28;20204;-80
2022/05/03 09:50:45;;;;;;;0.20;0.20;;;21.10;99.90;;;20.34;75.33;99777.84;4981636;28;20207;-74
2022/05/03 09:53:24;;;;;;;0.00;0.00;;;20.90;99.90;;;20.33;75.23;99766.22;5010506;28;20211;-75
2022/05/03 09:55:53;;;;;;;0.10;0.10;;;;;;;20.60;74.82;99795.59;5006158;28;20242;-76
2022/05/03 09:58:21;;;;;;;0.10;0.10;;;;;;;20.44;74.48;99765.81;5010426;28;20215;-75
2022/05/03 10:00:50;;;;;;;0.00;0.00;;;;;;;21.02;75.83;99839.47;5006762;28;20210;-74
2022/05/03 10:03:20;;;;;;;0.38;0.38;;;;;;;21.42;72.85;99829.69;5002911;28;20214;-74
2022/05/03 10:05:49;;;;;;;0.05;0.05;;;;;;;21.65;73.01;99824.13;5005538;28;20227;-75
2022/05/03 10:08:21;;;;;;;0.22;0.22;;;22.10;99.90;;;21.62;71.58;99772.25;5000594;28;20656;-74
2022/05/03 10:10:58;;;;;;;0.17;0.17;;;22.20;99.90;;;21.48;70.75;99729.88;5010187;28;20211;-77
2022/05/03 10:13:27;;;;;;;0.08;0.08;;;;;;;22.18;71.24;99795.66;4985175;28;20575;-74
2022/05/03 10:21:41;;;;;;;0.00;0.00;;;23.10;99.90;;;22.24;71.28;99744.19;4993207;28;20211;-75
2022/05/03 10:24:14;;;;;;;0.10;0.10;;;23.00;99.90;;;21.89;70.03;99674.06;5004867;28;20748;-76
2022/05/03 10:27:05;;;;;;;0.10;0.10;;;22.60;99.90;;;21.31;69.08;99589.94;4984618;28;20227;-74
2022/05/03 10:29:37;;;;;;;0.00;0.00;;;22.40;99.90;;;21.92;71.54;99694.56;5006320;28;20214;-74
2022/05/03 10:32:08;;;;;;;0.00;0.00;;;22.40;99.90;;;21.63;70.54;99648.41;4971132;28;20207;-74
2022/05/03 10:34:56;;;;;;;0.05;0.05;;;22.60;99.90;;;22.29;72.03;99734.06;5005407;28;20212;-74
2022/05/03 10:37:33;;;;;;;0.00;0.00;;;22.90;99.90;;;22.76;71.55;99757.72;5011115;28;20314;-75
2022/05/03 10:40:09;;;;;;;0.40;0.40;;;23.30;99.90;;;22.34;67.12;99617.06;5004369;28;20199;-78
2022/05/03 10:42:38;;;;;;;0.10;0.10;;;;;;;21.42;67.32;99482.69;5004623;28;20279;-75
2022/05/03 10:45:07;;;;;;;0.00;0.00;;;23.00;99.90;;;22.65;69.57;99670.19;4986473;28;20214;-76
2022/05/03 10:47:49;;;;;;;0.10;0.10;;;23.40;99.90;;;23.18;68.85;99706.94;5008337;28;20586;-75
2022/05/03 10:50:19;;;;;;;0.00;0.00;;;;;;;22.47;69.18;99592.16;5007107;28;20211;-75
2022/05/03 10:52:56;;;;;;;0.20;0.20;;;23.60;99.90;;;23.13;70.28;99682.03;4987715;28;20204;-76
2022/05/03 10:55:28;;;;;;;0.10;0.10;;;23.90;99.90;;;23.42;68.93;99691.25;5006539;28;20222;-75
2022/05/03 10:58:19;;;;;;;0.00;0.00;;;24.00;99.90;;;23.57;68.49;99666.16;4972816;28;20206;-74
2022/05/03 11:01:18;;;;;;;0.00;0.00;;;24.40;99.90;;;23.35;67.06;99576.50;5004389;28;20211;-78
2022/05/03 11:03:52;;;;;;;0.10;0.10;;;24.40;99.90;;;23.73;67.87;99624.78;5000449;28;20299;-75
2022/05/03 11:06:22;;;;;;;0.08;0.08;;;;;;;23.07;65.20;99453.16;5004635;28;20234;-74
2022/05/03 11:11:54;;;;;;;0.10;0.10;;;24.60;99.90;;;24.19;67.30;99614.84;5003996;28;20215;-76
2022/05/03 11:14:22;;;;;;;0.10;0.10;;;24.90;99.90;;;23.75;66.30;99518.44;4991749;28;20215;-74
2022/05/03 11:17:05;;;;;;;0.10;0.10;;;25.00;99.90;;;24.22;65.80;99561.50;5006665;28;20247;-74